sensor_id;sensor_type;location;lat;lon;timestamp;temperature;humidity
14095;DHT22;18096;48.142;16.290;2023-05-10T00:01:57;11.40;98.60
14095;DHT22;18096;48.142;16.290;2023-05-10T00:04:23;11.40;98.60
14095;DHT22;18096;48.142;16.290;2023-05-10T00:06:52;11.40;98.70
14095;DHT22;18096;48.142;16.290;2023-05-10T00:09:18;11.40;98.80
14095;DHT22;18096;48.142;16.290;2023-05-10T00:11:43;11.30;98.70
14095;DHT22;18096;48.142;16.290;2023-05-10T00:14:09;11.30;98.70
14095;DHT22;18096;48.142;16.290;2023-05-10T00:16:34;11.30;98.80
14095;DHT22;18096;48.142;16.290;2023-05-10T00:19:00;11.30;98.90
14095;DHT22;18096;48.142;16.290;2023-05-10T00:21:25;11.20;98.90
14095;DHT22;18096;48.142;16.290;2023-05-10T00:23:51;11.20;98.90
14095;DHT22;18096;48.142;16.290;2023-05-10T00:26:17;11.20;98.90
14095;DHT22;18096;48.142;16.290;2023-05-10T00:28:42;11.20;99.00
14095;DHT22;18096;48.142;16.290;2023-05-10T00:31:08;11.20;99.00
14095;DHT22;18096;48.142;16.290;2023-05-10T00:33:33;11.20;99.00
14095;DHT22;18096;48.142;16.290;2023-05-10T00:35:59;11.20;99.10
14095;DHT22;18096;48.142;16.290;2023-05-10T00:38:24;11.10;99.20
14095;DHT22;18096;48.142;16.290;2023-05-10T00:40:50;11.10;99.20
14095;DHT22;18096;48.142;16.290;2023-05-10T00:43:15;11.10;99.20
14095;DHT22;18096;48.142;16.290;2023-05-10T00:45:41;11.10;99.40
14095;DHT22;18096;48.142;16.290;2023-05-10T00:48:06;11.00;99.50
14095;DHT22;18096;48.142;16.290;2023-05-10T00:50:32;11.00;99.50
14095;DHT22;18096;48.142;16.290;2023-05-10T00:52:58;11.00;99.60
14095;DHT22;18096;48.142;16.290;2023-05-10T00:55:24;11.00;99.80
14095;DHT22;18096;48.142;16.290;2023-05-10T00:57:50;11.00;99.80
14095;DHT22;18096;48.142;16.290;2023-05-10T01:00:15;11.00;99.80
14095;DHT22;18096;48.142;16.290;2023-05-10T01:02:47;11.00;99.80
14095;DHT22;18096;48.142;16.290;2023-05-10T01:05:12;10.90;99.80
14095;DHT22;18096;48.142;16.290;2023-05-10T01:07:38;10.90;99.90
14095;DHT22;18096;48.142;16.290;2023-05-10T01:10:04;10.90;99.90
14095;DHT22;18096;48.142;16.290;2023-05-10T01:12:30;10.90;99.90
14095;DHT22;18096;48.142;16.290;2023-05-10T01:14:56;10.80;99.90
14095;DHT22;18096;48.142;16.290;2023-05-10T01:17:22;10.80;99.90
14095;DHT22;18096;48.142;16.290;2023-05-10T01:19:48;10.80;99.90
14095;DHT22;18096;48.142;16.290;2023-05-10T01:27:19;10.70;99.90
14095;DHT22;18096;48.142;16.290;2023-05-10T01:32:24;10.60;99.90
14095;DHT22;18096;48.142;16.290;2023-05-10T01:37:20;10.60;99.90
14095;DHT22;18096;48.142;16.290;2023-05-10T01:39:47;10.50;99.90
14095;DHT22;18096;48.142;16.290;2023-05-10T01:42:15;10.50;99.90
14095;DHT22;18096;48.142;16.290;2023-05-10T01:44:46;10.50;99.90
14095;DHT22;18096;48.142;16.290;2023-05-10T01:47:15;10.40;99.90
14095;DHT22;18096;48.142;16.290;2023-05-10T01:49:52;10.40;99.90
14095;DHT22;18096;48.142;16.290;2023-05-10T01:52:19;10.40;99.90
14095;DHT22;18096;48.142;16.290;2023-05-10T01:55:00;10.40;99.90
14095;DHT22;18096;48.142;16.290;2023-05-10T01:57:27;10.40;99.90
14095;DHT22;18096;48.142;16.290;2023-05-10T01:59:55;10.30;99.90
14095;DHT22;18096;48.142;16.290;2023-05-10T02:02:21;10.30;99.90
14095;DHT22;18096;48.142;16.290;2023-05-10T02:04:48;10.30;99.90
14095;DHT22;18096;48.142;16.290;2023-05-10T02:07:14;10.30;99.90
14095;DHT22;18096;48.142;16.290;2023-05-10T02:09:40;10.30;99.90
14095;DHT22;18096;48.142;16.290;2023-05-10T02:12:08;10.30;99.90
14095;DHT22;18096;48.142;16.290;2023-05-10T02:14:35;10.30;99.90
14095;DHT22;18096;48.142;16.290;2023-05-10T02:17:02;10.30;99.90
14095;DHT22;18096;48.142;16.290;2023-05-10T02:19:29;10.30;99.90
14095;DHT22;18096;48.142;16.290;2023-05-10T02:21:55;10.20;99.90
14095;DHT22;18096;48.142;16.290;2023-05-10T02:24:21;10.30;99.90
14095;DHT22;18096;48.142;16.290;2023-05-10T02:26:47;10.20;99.90
14095;DHT22;18096;48.142;16.290;2023-05-10T02:29:13;10.20;99.90
14095;DHT22;18096;48.142;16.290;2023-05-10T02:31:39;10.20;99.90
14095;DHT22;18096;48.142;16.290;2023-05-10T02:34:08;10.20;99.90
14095;DHT22;18096;48.142;16.290;2023-05-10T02:36:36;10.20;99.90
14095;DHT22;18096;48.142;16.290;2023-05-10T02:39:01;10.20;99.90
14095;DHT22;18096;48.142;16.290;2023-05-10T02:41:27;10.20;99.90
14095;DHT22;18096;48.142;16.290;2023-05-10T02:43:55;10.20;99.90
14095;DHT22;18096;48.142;16.290;2023-05-10T02:46:21;10.20;99.90
14095;DHT22;18096;48.142;16.290;2023-05-10T02:48:46;10.20;99.90
14095;DHT22;18096;48.142;16.290;2023-05-10T02:51:12;10.20;99.90
14095;DHT22;18096;48.142;16.290;2023-05-10T02:53:40;10.20;99.90
14095;DHT22;18096;48.142;16.290;2023-05-10T02:56:15;10.20;99.90
14095;DHT22;18096;48.142;16.290;2023-05-10T02:58:45;10.20;99.90
14095;DHT22;18096;48.142;16.290;2023-05-10T03:01:11;10.20;99.90
14095;DHT22;18096;48.142;16.290;2023-05-10T03:03:36;10.10;99.90
14095;DHT22;18096;48.142;16.290;2023-05-10T03:06:02;10.10;99.90
14095;DHT22;18096;48.142;16.290;2023-05-10T03:08:28;10.20;99.90
14095;DHT22;18096;48.142;16.290;2023-05-10T03:13:37;10.10;99.90
14095;DHT22;18096;48.142;16.290;2023-05-10T03:18:54;10.10;99.90
14095;DHT22;18096;48.142;16.290;2023-05-10T03:21:22;10.10;99.90
14095;DHT22;18096;48.142;16.290;2023-05-10T03:23:52;10.10;99.90
14095;DHT22;18096;48.142;16.290;2023-05-10T03:26:20;10.10;99.90
14095;DHT22;18096;48.142;16.290;2023-05-10T03:28:48;10.10;99.90
14095;DHT22;18096;48.142;16.290;2023-05-10T03:31:15;10.10;99.90
14095;DHT22;18096;48.142;16.290;2023-05-10T03:33:50;10.10;99.90
14095;DHT22;18096;48.142;16.290;2023-05-10T03:36:15;10.10;99.90
14095;DHT22;18096;48.142;16.290;2023-05-10T03:38:41;10.10;99.90
14095;DHT22;18096;48.142;16.290;2023-05-10T03:41:07;10.20;99.90
14095;DHT22;18096;48.142;16.290;2023-05-10T03:43:32;10.20;99.90
14095;DHT22;18096;48.142;16.290;2023-05-10T03:45:58;10.20;99.90
14095;DHT22;18096;48.142;16.290;2023-05-10T03:48:23;10.20;99.90
14095;DHT22;18096;48.142;16.290;2023-05-10T03:50:49;10.20;99.90
14095;DHT22;18096;48.142;16.290;2023-05-10T03:53:15;10.20;99.90
14095;DHT22;18096;48.142;16.290;2023-05-10T03:55:40;10.30;99.90
14095;DHT22;18096;48.142;16.290;2023-05-10T03:58:06;10.30;99.90
14095;DHT22;18096;48.142;16.290;2023-05-10T04:00:31;10.30;99.90
14095;DHT22;18096;48.142;16.290;2023-05-10T04:02:57;10.30;99.90
14095;DHT22;18096;48.142;16.290;2023-05-10T04:05:23;10.30;99.90
14095;DHT22;18096;48.142;16.290;2023-05-10T04:07:49;10.30;99.90
14095;DHT22;18096;48.142;16.290;2023-05-10T04:10:15;10.30;99.90
14095;DHT22;18096;48.142;16.290;2023-05-10T04:12:41;10.40;99.90
14095;DHT22;18096;48.142;16.290;2023-05-10T04:15:07;10.40;99.90
14095;DHT22;18096;48.142;16.290;2023-05-10T04:17:33;10.50;99.90
14095;DHT22;18096;48.142;16.290;2023-05-10T04:19:58;10.50;99.90
14095;DHT22;18096;48.142;16.290;2023-05-10T04:22:24;10.60;99.90
14095;DHT22;18096;48.142;16.290;2023-05-10T04:24:49;10.60;99.90
14095;DHT22;18096;48.142;16.290;2023-05-10T04:27:15;10.70;99.90
14095;DHT22;18096;48.142;16.290;2023-05-10T04:29:40;10.70;99.90
14095;DHT22;18096;48.142;16.290;2023-05-10T04:32:06;10.80;99.90
14095;DHT22;18096;48.142;16.290;2023-05-10T04:34:32;10.90;99.90
14095;DHT22;18096;48.142;16.290;2023-05-10T04:36:59;10.80;99.90
14095;DHT22;18096;48.142;16.290;2023-05-10T04:39:24;10.90;99.90
14095;DHT22;18096;48.142;16.290;2023-05-10T04:41:50;11.00;99.90
14095;DHT22;18096;48.142;16.290;2023-05-10T04:44:16;11.00;99.90
14095;DHT22;18096;48.142;16.290;2023-05-10T04:46:41;11.00;99.90
14095;DHT22;18096;48.142;16.290;2023-05-10T04:49:06;11.00;99.90
14095;DHT22;18096;48.142;16.290;2023-05-10T04:51:32;11.10;99.90
14095;DHT22;18096;48.142;16.290;2023-05-10T04:53:58;11.10;99.90
14095;DHT22;18096;48.142;16.290;2023-05-10T04:56:23;11.10;99.90
14095;DHT22;18096;48.142;16.290;2023-05-10T04:58:49;11.20;99.90
14095;DHT22;18096;48.142;16.290;2023-05-10T05:01:15;11.20;99.90
14095;DHT22;18096;48.142;16.290;2023-05-10T05:03:40;11.20;99.90
14095;DHT22;18096;48.142;16.290;2023-05-10T05:06:06;11.30;99.90
14095;DHT22;18096;48.142;16.290;2023-05-10T05:08:31;11.40;99.90
14095;DHT22;18096;48.142;16.290;2023-05-10T05:10:57;11.40;99.90
14095;DHT22;18096;48.142;16.290;2023-05-10T05:13:22;11.50;99.90
14095;DHT22;18096;48.142;16.290;2023-05-10T05:15:48;11.60;99.90
14095;DHT22;18096;48.142;16.290;2023-05-10T05:18:13;11.70;99.90
14095;DHT22;18096;48.142;16.290;2023-05-10T05:20:39;11.70;99.90
14095;DHT22;18096;48.142;16.290;2023-05-10T05:23:05;11.80;99.90
14095;DHT22;18096;48.142;16.290;2023-05-10T05:25:30;11.90;99.90
14095;DHT22;18096;48.142;16.290;2023-05-10T05:27:56;12.00;99.90
14095;DHT22;18096;48.142;16.290;2023-05-10T05:30:21;12.00;99.90
14095;DHT22;18096;48.142;16.290;2023-05-10T05:32:47;12.00;99.90
14095;DHT22;18096;48.142;16.290;2023-05-10T05:35:12;12.10;99.90
14095;DHT22;18096;48.142;16.290;2023-05-10T05:37:38;12.20;99.90
14095;DHT22;18096;48.142;16.290;2023-05-10T05:40:03;12.20;99.90
14095;DHT22;18096;48.142;16.290;2023-05-10T05:42:30;12.30;99.90
14095;DHT22;18096;48.142;16.290;2023-05-10T05:44:56;12.40;99.90
14095;DHT22;18096;48.142;16.290;2023-05-10T05:47:22;12.50;99.90
14095;DHT22;18096;48.142;16.290;2023-05-10T05:49:48;12.60;99.90
14095;DHT22;18096;48.142;16.290;2023-05-10T05:52:13;12.70;99.90
14095;DHT22;18096;48.142;16.290;2023-05-10T05:54:38;12.90;99.90
14095;DHT22;18096;48.142;16.290;2023-05-10T05:57:04;13.00;99.90
14095;DHT22;18096;48.142;16.290;2023-05-10T06:02:14;13.20;99.90
14095;DHT22;18096;48.142;16.290;2023-05-10T06:04:39;13.30;99.90
14095;DHT22;18096;48.142;16.290;2023-05-10T06:07:05;13.50;99.90
14095;DHT22;18096;48.142;16.290;2023-05-10T06:09:31;13.60;99.90
14095;DHT22;18096;48.142;16.290;2023-05-10T06:11:56;13.70;99.90
14095;DHT22;18096;48.142;16.290;2023-05-10T06:14:22;13.80;99.90
14095;DHT22;18096;48.142;16.290;2023-05-10T06:16:48;13.90;99.90
14095;DHT22;18096;48.142;16.290;2023-05-10T06:19:13;14.00;99.90
14095;DHT22;18096;48.142;16.290;2023-05-10T06:21:39;14.10;99.90
14095;DHT22;18096;48.142;16.290;2023-05-10T06:24:05;14.20;99.90
14095;DHT22;18096;48.142;16.290;2023-05-10T06:26:31;14.20;99.90
14095;DHT22;18096;48.142;16.290;2023-05-10T06:28:57;14.40;99.90
14095;DHT22;18096;48.142;16.290;2023-05-10T06:31:23;14.40;99.90
14095;DHT22;18096;48.142;16.290;2023-05-10T06:33:48;14.50;99.90
14095;DHT22;18096;48.142;16.290;2023-05-10T06:36:14;14.60;99.90
14095;DHT22;18096;48.142;16.290;2023-05-10T06:38:39;14.70;99.90
14095;DHT22;18096;48.142;16.290;2023-05-10T06:41:05;14.70;99.90
14095;DHT22;18096;48.142;16.290;2023-05-10T06:43:31;14.80;99.90
14095;DHT22;18096;48.142;16.290;2023-05-10T06:45:56;14.80;99.90
14095;DHT22;18096;48.142;16.290;2023-05-10T06:48:22;14.80;99.90
14095;DHT22;18096;48.142;16.290;2023-05-10T06:50:48;14.90;99.70
14095;DHT22;18096;48.142;16.290;2023-05-10T06:53:13;14.90;99.90
14095;DHT22;18096;48.142;16.290;2023-05-10T06:55:39;14.90;99.90
14095;DHT22;18096;48.142;16.290;2023-05-10T06:58:04;15.00;99.90
14095;DHT22;18096;48.142;16.290;2023-05-10T07:00:30;15.10;99.90
14095;DHT22;18096;48.142;16.290;2023-05-10T07:02:55;15.10;99.80
14095;DHT22;18096;48.142;16.290;2023-05-10T07:05:21;15.20;99.60
14095;DHT22;18096;48.142;16.290;2023-05-10T07:07:47;15.20;99.40
14095;DHT22;18096;48.142;16.290;2023-05-10T07:10:12;15.30;99.30
14095;DHT22;18096;48.142;16.290;2023-05-10T07:12:38;15.40;99.40
14095;DHT22;18096;48.142;16.290;2023-05-10T07:15:04;15.40;98.80
14095;DHT22;18096;48.142;16.290;2023-05-10T07:17:30;15.50;98.20
14095;DHT22;18096;48.142;16.290;2023-05-10T07:19:55;15.50;98.10
14095;DHT22;18096;48.142;16.290;2023-05-10T07:22:21;15.60;97.70
14095;DHT22;18096;48.142;16.290;2023-05-10T07:24:46;15.60;97.60
14095;DHT22;18096;48.142;16.290;2023-05-10T07:27:12;15.70;97.70
14095;DHT22;18096;48.142;16.290;2023-05-10T07:29:38;15.80;97.80
14095;DHT22;18096;48.142;16.290;2023-05-10T07:32:04;15.80;97.50
14095;DHT22;18096;48.142;16.290;2023-05-10T07:34:29;15.90;97.20
14095;DHT22;18096;48.142;16.290;2023-05-10T07:36:57;16.00;97.10
14095;DHT22;18096;48.142;16.290;2023-05-10T07:39:22;16.10;96.90
14095;DHT22;18096;48.142;16.290;2023-05-10T07:41:48;16.10;97.10
14095;DHT22;18096;48.142;16.290;2023-05-10T07:44:13;16.10;97.50
14095;DHT22;18096;48.142;16.290;2023-05-10T07:46:39;16.20;97.70
14095;DHT22;18096;48.142;16.290;2023-05-10T07:49:04;16.20;97.90
14095;DHT22;18096;48.142;16.290;2023-05-10T07:51:30;16.30;98.10
14095;DHT22;18096;48.142;16.290;2023-05-10T07:53:56;16.30;97.70
14095;DHT22;18096;48.142;16.290;2023-05-10T07:56:26;16.30;97.40
14095;DHT22;18096;48.142;16.290;2023-05-10T07:58:54;16.30;97.80
14095;DHT22;18096;48.142;16.290;2023-05-10T08:01:20;16.40;98.10
14095;DHT22;18096;48.142;16.290;2023-05-10T08:03:46;16.40;98.40
14095;DHT22;18096;48.142;16.290;2023-05-10T08:06:11;16.50;98.50
14095;DHT22;18096;48.142;16.290;2023-05-10T08:08:37;16.50;98.40
14095;DHT22;18096;48.142;16.290;2023-05-10T08:11:03;16.60;99.00
14095;DHT22;18096;48.142;16.290;2023-05-10T08:13:28;16.60;98.80
14095;DHT22;18096;48.142;16.290;2023-05-10T08:15:54;16.60;98.50
14095;DHT22;18096;48.142;16.290;2023-05-10T08:18:20;16.60;98.30
14095;DHT22;18096;48.142;16.290;2023-05-10T08:20:46;16.70;98.60
14095;DHT22;18096;48.142;16.290;2023-05-10T08:23:14;16.80;98.40
14095;DHT22;18096;48.142;16.290;2023-05-10T08:25:40;16.80;98.10
14095;DHT22;18096;48.142;16.290;2023-05-10T08:28:06;16.80;97.70
14095;DHT22;18096;48.142;16.290;2023-05-10T08:30:31;16.80;97.70
14095;DHT22;18096;48.142;16.290;2023-05-10T08:32:57;16.80;98.00
14095;DHT22;18096;48.142;16.290;2023-05-10T08:35:22;16.90;97.90
14095;DHT22;18096;48.142;16.290;2023-05-10T08:37:48;16.90;96.90
14095;DHT22;18096;48.142;16.290;2023-05-10T08:40:13;16.90;96.60
14095;DHT22;18096;48.142;16.290;2023-05-10T08:42:40;16.90;96.90
14095;DHT22;18096;48.142;16.290;2023-05-10T08:45:08;16.90;96.20
14095;DHT22;18096;48.142;16.290;2023-05-10T08:47:37;16.90;96.00
14095;DHT22;18096;48.142;16.290;2023-05-10T08:50:04;17.00;95.60
14095;DHT22;18096;48.142;16.290;2023-05-10T08:52:29;16.90;95.60
14095;DHT22;18096;48.142;16.290;2023-05-10T08:54:55;16.90;95.60
14095;DHT22;18096;48.142;16.290;2023-05-10T08:57:21;16.90;95.90
14095;DHT22;18096;48.142;16.290;2023-05-10T08:59:47;16.90;95.90
14095;DHT22;18096;48.142;16.290;2023-05-10T09:02:12;16.90;95.90
14095;DHT22;18096;48.142;16.290;2023-05-10T09:04:38;16.90;96.20
14095;DHT22;18096;48.142;16.290;2023-05-10T09:07:03;16.90;96.20
14095;DHT22;18096;48.142;16.290;2023-05-10T09:09:29;16.90;96.60
14095;DHT22;18096;48.142;16.290;2023-05-10T09:11:55;17.00;96.50
14095;DHT22;18096;48.142;16.290;2023-05-10T09:14:20;17.00;96.30
14095;DHT22;18096;48.142;16.290;2023-05-10T09:16:46;17.00;96.30
14095;DHT22;18096;48.142;16.290;2023-05-10T09:19:12;17.10;96.20
14095;DHT22;18096;48.142;16.290;2023-05-10T09:21:38;16.90;96.20
14095;DHT22;18096;48.142;16.290;2023-05-10T09:24:04;16.90;95.60
14095;DHT22;18096;48.142;16.290;2023-05-10T09:26:30;16.90;94.40
14095;DHT22;18096;48.142;16.290;2023-05-10T09:28:56;16.90;94.30
14095;DHT22;18096;48.142;16.290;2023-05-10T09:31:22;16.90;94.50
14095;DHT22;18096;48.142;16.290;2023-05-10T09:33:50;16.90;95.00
14095;DHT22;18096;48.142;16.290;2023-05-10T09:36:16;16.90;95.30
14095;DHT22;18096;48.142;16.290;2023-05-10T09:38:51;17.00;95.70
14095;DHT22;18096;48.142;16.290;2023-05-10T09:41:21;17.10;96.10
14095;DHT22;18096;48.142;16.290;2023-05-10T09:43:47;17.30;95.80
14095;DHT22;18096;48.142;16.290;2023-05-10T09:46:13;17.30;95.30
14095;DHT22;18096;48.142;16.290;2023-05-10T09:48:44;17.40;95.20
14095;DHT22;18096;48.142;16.290;2023-05-10T09:51:10;17.50;95.00
14095;DHT22;18096;48.142;16.290;2023-05-10T09:53:36;17.60;93.70
14095;DHT22;18096;48.142;16.290;2023-05-10T09:56:01;17.60;93.00
14095;DHT22;18096;48.142;16.290;2023-05-10T09:58:27;17.60;92.70
14095;DHT22;18096;48.142;16.290;2023-05-10T10:00:53;17.60;92.80
14095;DHT22;18096;48.142;16.290;2023-05-10T10:03:22;17.60;92.60
14095;DHT22;18096;48.142;16.290;2023-05-10T10:05:48;17.60;93.30
14095;DHT22;18096;48.142;16.290;2023-05-10T10:08:15;17.60;92.80
14095;DHT22;18096;48.142;16.290;2023-05-10T10:10:42;17.70;92.90
14095;DHT22;18096;48.142;16.290;2023-05-10T10:13:10;17.70;92.60
14095;DHT22;18096;48.142;16.290;2023-05-10T10:15:36;17.90;92.50
14095;DHT22;18096;48.142;16.290;2023-05-10T10:18:03;18.00;93.00
14095;DHT22;18096;48.142;16.290;2023-05-10T10:20:31;18.00;92.40
14095;DHT22;18096;48.142;16.290;2023-05-10T10:22:57;18.00;91.60
14095;DHT22;18096;48.142;16.290;2023-05-10T10:25:23;18.00;92.10
14095;DHT22;18096;48.142;16.290;2023-05-10T10:30:46;18.00;92.30
14095;DHT22;18096;48.142;16.290;2023-05-10T10:36:05;18.10;92.00
14095;DHT22;18096;48.142;16.290;2023-05-10T10:41:33;18.30;91.50
14095;DHT22;18096;48.142;16.290;2023-05-10T10:52:32;18.50;90.40
14095;DHT22;18096;48.142;16.290;2023-05-10T10:55:13;18.50;90.60
14095;DHT22;18096;48.142;16.290;2023-05-10T10:57:48;18.50;90.20
14095;DHT22;18096;48.142;16.290;2023-05-10T11:03:10;18.50;90.30
14095;DHT22;18096;48.142;16.290;2023-05-10T11:05:47;18.50;90.00
14095;DHT22;18096;48.142;16.290;2023-05-10T11:08:14;18.50;90.90
14095;DHT22;18096;48.142;16.290;2023-05-10T11:10:48;18.60;90.80
14095;DHT22;18096;48.142;16.290;2023-05-10T11:13:14;18.70;90.50
14095;DHT22;18096;48.142;16.290;2023-05-10T11:15:48;18.80;90.90
14095;DHT22;18096;48.142;16.290;2023-05-10T11:18:28;18.90;91.10
14095;DHT22;18096;48.142;16.290;2023-05-10T11:20:59;19.00;91.00
14095;DHT22;18096;48.142;16.290;2023-05-10T11:23:55;19.10;90.70
14095;DHT22;18096;48.142;16.290;2023-05-10T11:26:31;19.20;90.60
14095;DHT22;18096;48.142;16.290;2023-05-10T11:28:57;19.20;89.30
14095;DHT22;18096;48.142;16.290;2023-05-10T11:31:27;19.20;89.60
14095;DHT22;18096;48.142;16.290;2023-05-10T11:33:58;19.20;89.30
14095;DHT22;18096;48.142;16.290;2023-05-10T11:36:43;19.10;88.20
14095;DHT22;18096;48.142;16.290;2023-05-10T11:39:09;19.00;88.30
14095;DHT22;18096;48.142;16.290;2023-05-10T11:41:35;19.00;87.60
14095;DHT22;18096;48.142;16.290;2023-05-10T11:44:01;18.90;87.40
14095;DHT22;18096;48.142;16.290;2023-05-10T11:46:28;18.90;86.90
14095;DHT22;18096;48.142;16.290;2023-05-10T11:48:57;18.90;87.00
14095;DHT22;18096;48.142;16.290;2023-05-10T11:51:24;18.90;87.60
14095;DHT22;18096;48.142;16.290;2023-05-10T11:53:52;19.00;86.90
14095;DHT22;18096;48.142;16.290;2023-05-10T11:56:18;19.00;86.60
14095;DHT22;18096;48.142;16.290;2023-05-10T11:58:43;18.90;84.40
14095;DHT22;18096;48.142;16.290;2023-05-10T12:01:10;18.90;84.80
14095;DHT22;18096;48.142;16.290;2023-05-10T12:03:37;18.90;86.50
14095;DHT22;18096;48.142;16.290;2023-05-10T12:06:03;19.00;86.10
14095;DHT22;18096;48.142;16.290;2023-05-10T12:08:30;19.00;86.40
14095;DHT22;18096;48.142;16.290;2023-05-10T12:11:09;19.10;86.80
14095;DHT22;18096;48.142;16.290;2023-05-10T12:13:40;19.20;85.30
14095;DHT22;18096;48.142;16.290;2023-05-10T12:16:20;19.20;85.20
14095;DHT22;18096;48.142;16.290;2023-05-10T12:18:53;19.30;84.50
14095;DHT22;18096;48.142;16.290;2023-05-10T12:21:19;19.30;84.20
14095;DHT22;18096;48.142;16.290;2023-05-10T12:23:46;19.40;83.10
14095;DHT22;18096;48.142;16.290;2023-05-10T12:26:12;19.40;83.40
14095;DHT22;18096;48.142;16.290;2023-05-10T12:28:38;19.50;83.80
14095;DHT22;18096;48.142;16.290;2023-05-10T12:31:07;19.50;82.40
14095;DHT22;18096;48.142;16.290;2023-05-10T12:33:41;19.60;82.90
14095;DHT22;18096;48.142;16.290;2023-05-10T12:36:11;19.60;82.40
14095;DHT22;18096;48.142;16.290;2023-05-10T12:38:44;19.60;81.80
14095;DHT22;18096;48.142;16.290;2023-05-10T12:41:12;19.60;80.30
14095;DHT22;18096;48.142;16.290;2023-05-10T12:43:39;19.60;80.70
14095;DHT22;18096;48.142;16.290;2023-05-10T12:46:10;19.70;80.60
14095;DHT22;18096;48.142;16.290;2023-05-10T12:48:37;19.70;80.80
14095;DHT22;18096;48.142;16.290;2023-05-10T12:51:03;19.70;81.40
14095;DHT22;18096;48.142;16.290;2023-05-10T12:53:30;19.80;82.00
14095;DHT22;18096;48.142;16.290;2023-05-10T12:55:55;19.80;82.80
14095;DHT22;18096;48.142;16.290;2023-05-10T12:58:21;19.70;80.50
14095;DHT22;18096;48.142;16.290;2023-05-10T13:00:47;19.70;81.60
14095;DHT22;18096;48.142;16.290;2023-05-10T13:03:13;19.70;80.80
14095;DHT22;18096;48.142;16.290;2023-05-10T13:05:38;19.70;81.30
14095;DHT22;18096;48.142;16.290;2023-05-10T13:08:04;19.70;81.50
14095;DHT22;18096;48.142;16.290;2023-05-10T13:10:30;19.60;80.60
14095;DHT22;18096;48.142;16.290;2023-05-10T13:12:59;19.50;81.00
14095;DHT22;18096;48.142;16.290;2023-05-10T13:15:25;19.50;80.00
14095;DHT22;18096;48.142;16.290;2023-05-10T13:17:52;19.40;80.20
14095;DHT22;18096;48.142;16.290;2023-05-10T13:20:18;19.40;80.30
14095;DHT22;18096;48.142;16.290;2023-05-10T13:22:44;19.40;81.30
14095;DHT22;18096;48.142;16.290;2023-05-10T13:25:10;19.40;81.50
14095;DHT22;18096;48.142;16.290;2023-05-10T13:27:40;19.40;81.80
14095;DHT22;18096;48.142;16.290;2023-05-10T13:30:07;19.40;80.80
14095;DHT22;18096;48.142;16.290;2023-05-10T13:32:33;19.30;80.80
14095;DHT22;18096;48.142;16.290;2023-05-10T13:34:58;19.30;80.10
14095;DHT22;18096;48.142;16.290;2023-05-10T13:37:24;19.30;79.80
14095;DHT22;18096;48.142;16.290;2023-05-10T13:39:49;19.30;79.20
14095;DHT22;18096;48.142;16.290;2023-05-10T13:42:15;19.20;80.20
14095;DHT22;18096;48.142;16.290;2023-05-10T13:44:41;19.20;80.70
14095;DHT22;18096;48.142;16.290;2023-05-10T13:47:06;19.20;81.60
14095;DHT22;18096;48.142;16.290;2023-05-10T13:49:32;19.20;82.20
14095;DHT22;18096;48.142;16.290;2023-05-10T13:51:59;19.20;81.30
14095;DHT22;18096;48.142;16.290;2023-05-10T13:54:26;19.20;81.80
14095;DHT22;18096;48.142;16.290;2023-05-10T13:56:54;19.20;81.90
14095;DHT22;18096;48.142;16.290;2023-05-10T13:59:20;19.20;82.10
14095;DHT22;18096;48.142;16.290;2023-05-10T14:01:45;19.20;81.70
14095;DHT22;18096;48.142;16.290;2023-05-10T14:04:11;19.20;80.90
14095;DHT22;18096;48.142;16.290;2023-05-10T14:06:37;19.10;81.50
14095;DHT22;18096;48.142;16.290;2023-05-10T14:09:03;19.10;81.40
14095;DHT22;18096;48.142;16.290;2023-05-10T14:11:28;19.00;81.30
14095;DHT22;18096;48.142;16.290;2023-05-10T14:13:54;19.00;81.60
14095;DHT22;18096;48.142;16.290;2023-05-10T14:16:20;19.10;81.10
14095;DHT22;18096;48.142;16.290;2023-05-10T14:18:46;19.20;81.80
14095;DHT22;18096;48.142;16.290;2023-05-10T14:21:12;19.30;80.10
14095;DHT22;18096;48.142;16.290;2023-05-10T14:23:38;19.30;80.00
14095;DHT22;18096;48.142;16.290;2023-05-10T14:26:04;19.40;79.70
14095;DHT22;18096;48.142;16.290;2023-05-10T14:28:29;19.40;78.80
14095;DHT22;18096;48.142;16.290;2023-05-10T14:30:55;19.50;78.00
14095;DHT22;18096;48.142;16.290;2023-05-10T14:33:21;19.50;78.80
14095;DHT22;18096;48.142;16.290;2023-05-10T14:35:47;19.50;77.50
14095;DHT22;18096;48.142;16.290;2023-05-10T14:38:13;19.50;77.40
14095;DHT22;18096;48.142;16.290;2023-05-10T14:40:39;19.50;77.10
14095;DHT22;18096;48.142;16.290;2023-05-10T14:43:05;19.50;77.10
14095;DHT22;18096;48.142;16.290;2023-05-10T14:45:30;19.60;76.60
14095;DHT22;18096;48.142;16.290;2023-05-10T14:47:57;19.70;75.80
14095;DHT22;18096;48.142;16.290;2023-05-10T14:50:22;19.70;76.50
14095;DHT22;18096;48.142;16.290;2023-05-10T14:52:48;19.80;76.10
14095;DHT22;18096;48.142;16.290;2023-05-10T14:55:14;19.80;76.10
14095;DHT22;18096;48.142;16.290;2023-05-10T14:57:40;19.80;75.10
14095;DHT22;18096;48.142;16.290;2023-05-10T15:00:06;19.80;75.60
14095;DHT22;18096;48.142;16.290;2023-05-10T15:02:32;19.80;75.90
14095;DHT22;18096;48.142;16.290;2023-05-10T15:04:58;19.80;75.70
14095;DHT22;18096;48.142;16.290;2023-05-10T15:07:23;19.90;75.90
14095;DHT22;18096;48.142;16.290;2023-05-10T15:09:50;19.90;76.30
14095;DHT22;18096;48.142;16.290;2023-05-10T15:12:17;19.90;76.20
14095;DHT22;18096;48.142;16.290;2023-05-10T15:14:43;19.90;75.90
14095;DHT22;18096;48.142;16.290;2023-05-10T15:17:09;19.80;76.10
14095;DHT22;18096;48.142;16.290;2023-05-10T15:19:35;19.80;75.90
14095;DHT22;18096;48.142;16.290;2023-05-10T15:22:01;19.70;75.20
14095;DHT22;18096;48.142;16.290;2023-05-10T15:24:27;19.70;75.70
14095;DHT22;18096;48.142;16.290;2023-05-10T15:26:53;19.60;75.90
14095;DHT22;18096;48.142;16.290;2023-05-10T15:29:19;19.60;75.50
14095;DHT22;18096;48.142;16.290;2023-05-10T15:31:49;19.50;74.30
14095;DHT22;18096;48.142;16.290;2023-05-10T15:34:15;19.40;74.80
14095;DHT22;18096;48.142;16.290;2023-05-10T15:36:41;19.40;75.10
14095;DHT22;18096;48.142;16.290;2023-05-10T15:39:07;19.30;76.10
14095;DHT22;18096;48.142;16.290;2023-05-10T15:41:34;19.20;76.20
14095;DHT22;18096;48.142;16.290;2023-05-10T15:44:00;19.20;77.20
14095;DHT22;18096;48.142;16.290;2023-05-10T15:46:27;19.20;77.80
14095;DHT22;18096;48.142;16.290;2023-05-10T15:48:53;19.20;78.10
14095;DHT22;18096;48.142;16.290;2023-05-10T15:51:19;19.20;78.10